Strona główna
METAR-TAF:

METAR-TAF

Lotnisko :

Port lotniczy Montpellier

Montpellier, Francja

Szerokość geograficzna: 43-35N, Długość geograficzna: 003-58E, wysokość: 5 m

Aktualna obserwacja pogody

Raport powstał 18 minut temu, godzina 11:30 UTC
Wiatr 9 kt od północny zachód
Temperatura 10°C
Wilgotność 43%
Ciśnienie 1025 hPa
Widzialność 10 km lub więcej
Brak chmur poniżej 1500 m i brak chmur cumulonimbus

METAR: LFMT 101130Z AUTO 31009KT CAVOK 10/M02 Q1025

czas: 12:48 (11:48 UTC)

Prognoza

Raport powstał 9 godziny i 48 minut temu, godzina 02:00 UTC
Prognoza ważna od 10 godzina 03 UTC do 11 godzina 03 UTC
Wiatr 15 kt od północno-północny zachód w porywach dochodzący do 25 kt
Widzialność 10 km lub więcej
Brak chmur poniżej 1500 m i brak chmur cumulonimbus
Stopniowe zmiany
od 10 godzina 06 UTC do 10 godzina 08 UTC
Wiatr 12 kt od północny zachód
Stopniowe zmiany
od 10 godzina 16 UTC do 10 godzina 18 UTC
Wiatr 2 kt z kierunków zmiennych

TAF: LFMT 100200Z 1003/1103 33015G25KT CAVOK BECMG 1006/1008 32012KT BECMG 1016/1018 VRB02KT

Obserwacja i prognoza pogody dla ponad 4000 lotnisk (raport METAR i TAF).

Dostępne stacje oznaczono żółtymi i czerwonymi punktami na mapie.

Najedź kursorem aby zobaczyć nazwę stacji.

Kliknij aby zobaczyć obserwacje i prognozy pogody.

Aby zmienić mapę: kliknij na zielony przycisk z czarnym krzyżykiem, aby powiększyć; na zielony przycisk z myślnikiem, aby pomniejszyć; na zielone strzałki, aby przejść do map sąsiednich.


METAR-TAF: